sensor_id;sensor_type;location;lat;lon;timestamp;temperature;humidity
65752;DHT22;52486;51.098;13.770;2023-03-23T00:01:48;23.30;61.00
65752;DHT22;52486;51.098;13.770;2023-03-23T00:04:17;24.50;61.00
65752;DHT22;52486;51.098;13.770;2023-03-23T00:09:12;24.50;51.80
65752;DHT22;52486;51.098;13.770;2023-03-23T00:11:38;24.60;61.50
65752;DHT22;52486;51.098;13.770;2023-03-23T00:14:04;23.90;60.70
65752;DHT22;52486;51.098;13.770;2023-03-23T00:16:32;24.30;51.90
65752;DHT22;52486;51.098;13.770;2023-03-23T00:19:01;24.60;52.00
65752;DHT22;52486;51.098;13.770;2023-03-23T00:21:32;24.20;51.80
65752;DHT22;52486;51.098;13.770;2023-03-23T00:24:03;24.80;52.00
65752;DHT22;52486;51.098;13.770;2023-03-23T00:29:00;25.00;57.10
65752;DHT22;52486;51.098;13.770;2023-03-23T00:33:57;24.50;50.20
65752;DHT22;52486;51.098;13.770;2023-03-23T00:38:49;24.80;61.60
65752;DHT22;52486;51.098;13.770;2023-03-23T00:43:41;24.50;61.10
65752;DHT22;52486;51.098;13.770;2023-03-23T00:46:07;25.50;53.40
65752;DHT22;52486;51.098;13.770;2023-03-23T00:48:36;23.60;61.00
65752;DHT22;52486;51.098;13.770;2023-03-23T00:51:02;23.50;61.10
65752;DHT22;52486;51.098;13.770;2023-03-23T00:53:32;23.80;61.10
65752;DHT22;52486;51.098;13.770;2023-03-23T00:55:58;24.00;61.00
65752;DHT22;52486;51.098;13.770;2023-03-23T00:58:24;24.20;61.00
65752;DHT22;52486;51.098;13.770;2023-03-23T01:00:50;25.10;61.70
65752;DHT22;52486;51.098;13.770;2023-03-23T01:03:16;24.20;61.00
65752;DHT22;52486;51.098;13.770;2023-03-23T01:05:44;24.20;61.10
65752;DHT22;52486;51.098;13.770;2023-03-23T01:08:13;24.20;61.40
65752;DHT22;52486;51.098;13.770;2023-03-23T01:10:40;24.20;61.20
65752;DHT22;52486;51.098;13.770;2023-03-23T01:13:06;23.90;60.90
65752;DHT22;52486;51.098;13.770;2023-03-23T01:15:33;25.30;61.90
65752;DHT22;52486;51.098;13.770;2023-03-23T01:17:59;23.80;60.90
65752;DHT22;52486;51.098;13.770;2023-03-23T01:22:57;25.00;61.80
65752;DHT22;52486;51.098;13.770;2023-03-23T01:25:30;24.00;61.00
65752;DHT22;52486;51.098;13.770;2023-03-23T01:27:57;25.90;63.10
65752;DHT22;52486;51.098;13.770;2023-03-23T01:30:23;24.00;61.10
65752;DHT22;52486;51.098;13.770;2023-03-23T01:32:49;23.60;61.10
65752;DHT22;52486;51.098;13.770;2023-03-23T01:35:15;24.30;50.80
65752;DHT22;52486;51.098;13.770;2023-03-23T01:37:42;24.30;61.10
65752;DHT22;52486;51.098;13.770;2023-03-23T01:40:08;24.10;61.20
65752;DHT22;52486;51.098;13.770;2023-03-23T01:42:36;24.50;52.20
65752;DHT22;52486;51.098;13.770;2023-03-23T01:47:51;24.50;54.80
65752;DHT22;52486;51.098;13.770;2023-03-23T01:50:19;24.30;52.20
65752;DHT22;52486;51.098;13.770;2023-03-23T01:52:49;24.20;51.10
65752;DHT22;52486;51.098;13.770;2023-03-23T01:55:18;24.00;61.40
65752;DHT22;52486;51.098;13.770;2023-03-23T01:57:44;24.30;51.90
65752;DHT22;52486;51.098;13.770;2023-03-23T02:00:10;23.50;61.10
65752;DHT22;52486;51.098;13.770;2023-03-23T02:02:42;25.50;62.10
65752;DHT22;52486;51.098;13.770;2023-03-23T02:05:13;25.00;61.90
65752;DHT22;52486;51.098;13.770;2023-03-23T02:07:39;24.10;61.30
65752;DHT22;52486;51.098;13.770;2023-03-23T02:10:05;25.00;61.90
65752;DHT22;52486;51.098;13.770;2023-03-23T02:12:32;23.80;61.10
65752;DHT22;52486;51.098;13.770;2023-03-23T02:14:58;23.80;51.30
65752;DHT22;52486;51.098;13.770;2023-03-23T02:17:31;23.70;61.00
65752;DHT22;52486;51.098;13.770;2023-03-23T02:39:03;24.30;55.70
65752;DHT22;52486;51.098;13.770;2023-03-23T02:41:45;23.70;61.20
65752;DHT22;52486;51.098;13.770;2023-03-23T02:44:13;24.30;52.20
65752;DHT22;52486;51.098;13.770;2023-03-23T02:46:41;23.50;61.10
65752;DHT22;52486;51.098;13.770;2023-03-23T02:49:09;24.20;61.40
65752;DHT22;52486;51.098;13.770;2023-03-23T02:51:36;23.70;61.30
65752;DHT22;52486;51.098;13.770;2023-03-23T02:54:04;24.70;61.90
65752;DHT22;52486;51.098;13.770;2023-03-23T02:56:31;23.50;52.30
65752;DHT22;52486;51.098;13.770;2023-03-23T03:04:01;24.40;52.30
65752;DHT22;52486;51.098;13.770;2023-03-23T03:06:43;24.00;61.40
65752;DHT22;52486;51.098;13.770;2023-03-23T03:09:46;24.90;61.80
65752;DHT22;52486;51.098;13.770;2023-03-23T03:15:35;25.30;62.40
65752;DHT22;52486;51.098;13.770;2023-03-23T03:18:05;23.40;61.60
65752;DHT22;52486;51.098;13.770;2023-03-23T03:20:36;23.80;61.30
65752;DHT22;52486;51.098;13.770;2023-03-23T03:23:04;24.00;61.60
65752;DHT22;52486;51.098;13.770;2023-03-23T03:25:33;23.30;61.00
65752;DHT22;52486;51.098;13.770;2023-03-23T03:30:30;24.20;52.20
65752;DHT22;52486;51.098;13.770;2023-03-23T03:32:57;24.50;61.80
65752;DHT22;52486;51.098;13.770;2023-03-23T03:40:21;24.00;52.10
65752;DHT22;52486;51.098;13.770;2023-03-23T03:42:47;24.70;61.90
65752;DHT22;52486;51.098;13.770;2023-03-23T03:45:17;23.70;61.20
65752;DHT22;52486;51.098;13.770;2023-03-23T03:50:09;24.60;61.60
65752;DHT22;52486;51.098;13.770;2023-03-23T03:55:01;24.20;61.40
65752;DHT22;52486;51.098;13.770;2023-03-23T03:57:27;24.10;61.60
65752;DHT22;52486;51.098;13.770;2023-03-23T03:59:53;24.00;57.60
65752;DHT22;52486;51.098;13.770;2023-03-23T04:02:19;23.60;61.30
65752;DHT22;52486;51.098;13.770;2023-03-23T04:04:46;24.00;60.50
65752;DHT22;52486;51.098;13.770;2023-03-23T04:09:40;24.20;51.70
65752;DHT22;52486;51.098;13.770;2023-03-23T04:12:06;24.60;61.80
65752;DHT22;52486;51.098;13.770;2023-03-23T04:14:32;23.80;52.20
65752;DHT22;52486;51.098;13.770;2023-03-23T04:16:57;24.20;61.50
65752;DHT22;52486;51.098;13.770;2023-03-23T04:19:24;25.20;62.10
65752;DHT22;52486;51.098;13.770;2023-03-23T04:21:51;25.10;62.10
65752;DHT22;52486;51.098;13.770;2023-03-23T04:24:17;24.30;58.50
65752;DHT22;52486;51.098;13.770;2023-03-23T04:26:46;25.40;62.80
65752;DHT22;52486;51.098;13.770;2023-03-23T04:31:39;24.50;61.80
65752;DHT22;52486;51.098;13.770;2023-03-23T04:34:06;25.20;62.10
65752;DHT22;52486;51.098;13.770;2023-03-23T04:38:59;24.20;61.40
65752;DHT22;52486;51.098;13.770;2023-03-23T04:41:26;24.50;61.80
65752;DHT22;52486;51.098;13.770;2023-03-23T04:43:52;25.00;62.10
65752;DHT22;52486;51.098;13.770;2023-03-23T04:46:19;24.70;61.90
65752;DHT22;52486;51.098;13.770;2023-03-23T04:48:47;24.90;61.90
65752;DHT22;52486;51.098;13.770;2023-03-23T04:58:31;23.70;61.10
65752;DHT22;52486;51.098;13.770;2023-03-23T05:01:00;24.40;52.60
65752;DHT22;52486;51.098;13.770;2023-03-23T05:03:26;23.60;61.10
65752;DHT22;52486;51.098;13.770;2023-03-23T05:05:53;23.80;61.50
65752;DHT22;52486;51.098;13.770;2023-03-23T05:08:23;24.10;61.40
65752;DHT22;52486;51.098;13.770;2023-03-23T05:10:55;24.80;62.00
65752;DHT22;52486;51.098;13.770;2023-03-23T05:13:21;23.80;61.30
65752;DHT22;52486;51.098;13.770;2023-03-23T05:15:47;24.20;52.40
65752;DHT22;52486;51.098;13.770;2023-03-23T05:18:13;24.00;61.40
65752;DHT22;52486;51.098;13.770;2023-03-23T05:20:40;23.40;61.20
65752;DHT22;52486;51.098;13.770;2023-03-23T05:28:02;24.90;62.20
65752;DHT22;52486;51.098;13.770;2023-03-23T05:35:21;24.70;62.10
65752;DHT22;52486;51.098;13.770;2023-03-23T05:42:41;24.20;55.80
65752;DHT22;52486;51.098;13.770;2023-03-23T05:45:08;23.70;53.70
65752;DHT22;52486;51.098;13.770;2023-03-23T05:47:37;24.20;51.40
65752;DHT22;52486;51.098;13.770;2023-03-23T05:50:03;23.90;61.60
65752;DHT22;52486;51.098;13.770;2023-03-23T05:52:30;24.00;61.90
65752;DHT22;52486;51.098;13.770;2023-03-23T05:57:24;24.30;58.70
65752;DHT22;52486;51.098;13.770;2023-03-23T05:59:50;23.90;51.70
65752;DHT22;52486;51.098;13.770;2023-03-23T06:02:16;24.10;58.10
65752;DHT22;52486;51.098;13.770;2023-03-23T06:04:42;23.30;61.30
65752;DHT22;52486;51.098;13.770;2023-03-23T06:07:09;23.70;61.40
65752;DHT22;52486;51.098;13.770;2023-03-23T06:09:40;25.80;53.70
65752;DHT22;52486;51.098;13.770;2023-03-23T06:12:07;24.10;52.50
65752;DHT22;52486;51.098;13.770;2023-03-23T06:14:33;24.40;61.80
65752;DHT22;52486;51.098;13.770;2023-03-23T06:16:59;23.30;61.60
65752;DHT22;52486;51.098;13.770;2023-03-23T06:19:24;23.00;61.80
65752;DHT22;52486;51.098;13.770;2023-03-23T06:21:53;22.60;62.80
65752;DHT22;52486;51.098;13.770;2023-03-23T06:24:19;22.60;63.60
65752;DHT22;52486;51.098;13.770;2023-03-23T06:26:46;22.20;63.90
65752;DHT22;52486;51.098;13.770;2023-03-23T06:29:13;22.10;64.70
65752;DHT22;52486;51.098;13.770;2023-03-23T06:31:47;21.20;64.90
65752;DHT22;52486;51.098;13.770;2023-03-23T06:41:32;20.80;56.00
65752;DHT22;52486;51.098;13.770;2023-03-23T06:43:59;21.00;67.40
65752;DHT22;52486;51.098;13.770;2023-03-23T06:46:25;20.30;63.20
65752;DHT22;52486;51.098;13.770;2023-03-23T06:48:51;19.80;67.60
65752;DHT22;52486;51.098;13.770;2023-03-23T06:53:43;19.90;68.50
65752;DHT22;52486;51.098;13.770;2023-03-23T06:56:10;19.90;68.30
65752;DHT22;52486;51.098;13.770;2023-03-23T06:58:37;20.00;68.20
65752;DHT22;52486;51.098;13.770;2023-03-23T07:01:03;21.60;68.70
65752;DHT22;52486;51.098;13.770;2023-03-23T07:05:56;20.20;67.20
65752;DHT22;52486;51.098;13.770;2023-03-23T07:08:22;20.30;67.30
65752;DHT22;52486;51.098;13.770;2023-03-23T07:10:51;21.40;57.90
65752;DHT22;52486;51.098;13.770;2023-03-23T07:15:44;22.70;67.40
65752;DHT22;52486;51.098;13.770;2023-03-23T07:18:10;21.00;66.50
65752;DHT22;52486;51.098;13.770;2023-03-23T07:20:36;23.20;67.40
65752;DHT22;52486;51.098;13.770;2023-03-23T07:23:02;21.70;66.50
65752;DHT22;52486;51.098;13.770;2023-03-23T07:25:28;21.70;66.50
65752;DHT22;52486;51.098;13.770;2023-03-23T07:27:53;22.40;66.50
65752;DHT22;52486;51.098;13.770;2023-03-23T07:35:11;21.70;65.60
65752;DHT22;52486;51.098;13.770;2023-03-23T07:37:37;22.00;65.90
65752;DHT22;52486;51.098;13.770;2023-03-23T07:40:04;21.70;65.70
65752;DHT22;52486;51.098;13.770;2023-03-23T07:42:55;23.50;63.80
65752;DHT22;52486;51.098;13.770;2023-03-23T07:45:22;22.60;66.20
65752;DHT22;52486;51.098;13.770;2023-03-23T07:47:48;22.60;64.90
65752;DHT22;52486;51.098;13.770;2023-03-23T07:52:40;22.50;65.90
65752;DHT22;52486;51.098;13.770;2023-03-23T07:55:09;22.10;55.90
65752;DHT22;52486;51.098;13.770;2023-03-23T07:57:47;22.80;66.20
65752;DHT22;52486;51.098;13.770;2023-03-23T08:00:15;22.30;63.10
65752;DHT22;52486;51.098;13.770;2023-03-23T08:02:45;23.00;59.60
65752;DHT22;52486;51.098;13.770;2023-03-23T08:07:39;22.90;63.00
65752;DHT22;52486;51.098;13.770;2023-03-23T08:10:06;23.50;66.10
65752;DHT22;52486;51.098;13.770;2023-03-23T08:12:36;23.30;55.90
65752;DHT22;52486;51.098;13.770;2023-03-23T08:15:07;22.90;64.90
65752;DHT22;52486;51.098;13.770;2023-03-23T08:20:00;23.70;65.20
65752;DHT22;52486;51.098;13.770;2023-03-23T08:22:26;24.30;65.70
65752;DHT22;52486;51.098;13.770;2023-03-23T08:27:20;23.10;64.80
65752;DHT22;52486;51.098;13.770;2023-03-23T08:32:13;23.40;64.80
65752;DHT22;52486;51.098;13.770;2023-03-23T08:34:39;23.40;64.50
65752;DHT22;52486;51.098;13.770;2023-03-23T08:39:31;24.20;64.70
65752;DHT22;52486;51.098;13.770;2023-03-23T08:41:57;23.80;64.60
65752;DHT22;52486;51.098;13.770;2023-03-23T08:44:22;23.30;64.30
65752;DHT22;52486;51.098;13.770;2023-03-23T08:46:48;23.70;64.40
65752;DHT22;52486;51.098;13.770;2023-03-23T08:49:15;24.60;64.60
65752;DHT22;52486;51.098;13.770;2023-03-23T08:56:34;23.50;64.10
65752;DHT22;52486;51.098;13.770;2023-03-23T08:58:59;23.30;63.80
65752;DHT22;52486;51.098;13.770;2023-03-23T09:08:45;24.00;63.60
65752;DHT22;52486;51.098;13.770;2023-03-23T09:13:38;25.10;64.20
65752;DHT22;52486;51.098;13.770;2023-03-23T09:16:06;24.20;54.50
65752;DHT22;52486;51.098;13.770;2023-03-23T09:18:32;24.10;60.40
65752;DHT22;52486;51.098;13.770;2023-03-23T09:20:59;24.40;53.20
65752;DHT22;52486;51.098;13.770;2023-03-23T09:23:25;23.80;63.50
65752;DHT22;52486;51.098;13.770;2023-03-23T09:25:51;24.90;63.80
65752;DHT22;52486;51.098;13.770;2023-03-23T09:28:18;24.40;54.10
65752;DHT22;52486;51.098;13.770;2023-03-23T09:33:11;24.70;53.60
65752;DHT22;52486;51.098;13.770;2023-03-23T09:35:37;25.00;63.70
65752;DHT22;52486;51.098;13.770;2023-03-23T09:38:05;25.60;64.30
65752;DHT22;52486;51.098;13.770;2023-03-23T09:40:39;24.50;54.30
65752;DHT22;52486;51.098;13.770;2023-03-23T09:43:29;24.60;55.20
65752;DHT22;52486;51.098;13.770;2023-03-23T09:46:43;23.90;63.40
65752;DHT22;52486;51.098;13.770;2023-03-23T09:49:21;24.40;63.90
65752;DHT22;52486;51.098;13.770;2023-03-23T09:54:28;23.90;63.60
65752;DHT22;52486;51.098;13.770;2023-03-23T09:56:55;24.40;64.00
65752;DHT22;52486;51.098;13.770;2023-03-23T09:59:38;24.40;63.20
65752;DHT22;52486;51.098;13.770;2023-03-23T10:04:55;24.10;52.60
65752;DHT22;52486;51.098;13.770;2023-03-23T10:07:23;25.00;64.60
65752;DHT22;52486;51.098;13.770;2023-03-23T10:09:56;24.40;64.20
65752;DHT22;52486;51.098;13.770;2023-03-23T10:12:36;24.40;64.20
65752;DHT22;52486;51.098;13.770;2023-03-23T10:15:14;24.00;64.00
65752;DHT22;52486;51.098;13.770;2023-03-23T10:17:55;24.70;53.00
65752;DHT22;52486;51.098;13.770;2023-03-23T10:20:41;23.60;64.10
65752;DHT22;52486;51.098;13.770;2023-03-23T10:25:57;24.70;64.00
65752;DHT22;52486;51.098;13.770;2023-03-23T10:28:41;24.30;63.80
65752;DHT22;52486;51.098;13.770;2023-03-23T10:31:12;24.00;63.50
65752;DHT22;52486;51.098;13.770;2023-03-23T10:33:43;23.70;63.40
65752;DHT22;52486;51.098;13.770;2023-03-23T10:36:27;24.30;52.60
65752;DHT22;52486;51.098;13.770;2023-03-23T10:39:17;24.60;63.70
65752;DHT22;52486;51.098;13.770;2023-03-23T10:41:43;24.00;63.60
65752;DHT22;52486;51.098;13.770;2023-03-23T10:44:29;26.10;64.70
65752;DHT22;52486;51.098;13.770;2023-03-23T10:49:48;25.70;64.40
65752;DHT22;52486;51.098;13.770;2023-03-23T10:52:29;25.70;64.30
65752;DHT22;52486;51.098;13.770;2023-03-23T10:57:30;24.60;52.00
65752;DHT22;52486;51.098;13.770;2023-03-23T11:00:06;24.60;52.00
65752;DHT22;52486;51.098;13.770;2023-03-23T11:02:43;24.80;52.00
65752;DHT22;52486;51.098;13.770;2023-03-23T11:05:20;26.10;64.40
65752;DHT22;52486;51.098;13.770;2023-03-23T11:07:53;24.70;63.30
65752;DHT22;52486;51.098;13.770;2023-03-23T11:10:25;25.20;63.70
65752;DHT22;52486;51.098;13.770;2023-03-23T11:12:52;24.20;63.00
65752;DHT22;52486;51.098;13.770;2023-03-23T11:15:31;24.40;63.10
65752;DHT22;52486;51.098;13.770;2023-03-23T11:18:03;24.20;59.50
65752;DHT22;52486;51.098;13.770;2023-03-23T11:20:36;25.20;54.50
65752;DHT22;52486;51.098;13.770;2023-03-23T11:23:22;25.60;63.70
65752;DHT22;52486;51.098;13.770;2023-03-23T11:28:29;24.90;54.50
65752;DHT22;52486;51.098;13.770;2023-03-23T11:30:57;24.20;63.40
65752;DHT22;52486;51.098;13.770;2023-03-23T11:33:23;24.10;63.40
65752;DHT22;52486;51.098;13.770;2023-03-23T11:35:52;24.90;63.80
65752;DHT22;52486;51.098;13.770;2023-03-23T11:38:20;25.00;54.70
65752;DHT22;52486;51.098;13.770;2023-03-23T11:40:50;25.10;54.80
65752;DHT22;52486;51.098;13.770;2023-03-23T11:43:22;25.00;52.50
65752;DHT22;52486;51.098;13.770;2023-03-23T11:46:13;24.90;64.10
65752;DHT22;52486;51.098;13.770;2023-03-23T11:48:53;25.90;58.20
65752;DHT22;52486;51.098;13.770;2023-03-23T11:51:33;24.80;54.40
65752;DHT22;52486;51.098;13.770;2023-03-23T11:54:15;24.40;60.00
65752;DHT22;52486;51.098;13.770;2023-03-23T11:56:44;24.00;63.30
65752;DHT22;52486;51.098;13.770;2023-03-23T11:59:16;24.40;63.50
65752;DHT22;52486;51.098;13.770;2023-03-23T12:20:03;24.60;64.20
65752;DHT22;52486;51.098;13.770;2023-03-23T12:28:29;25.50;65.00
65752;DHT22;52486;51.098;13.770;2023-03-23T12:41:15;25.10;52.90
65752;DHT22;52486;51.098;13.770;2023-03-23T12:44:05;24.30;64.10
65752;DHT22;52486;51.098;13.770;2023-03-23T12:47:11;24.60;64.20
65752;DHT22;52486;51.098;13.770;2023-03-23T12:49:41;24.50;64.10
65752;DHT22;52486;51.098;13.770;2023-03-23T12:55:02;25.30;54.50
65752;DHT22;52486;51.098;13.770;2023-03-23T12:57:48;25.00;53.10
65752;DHT22;52486;51.098;13.770;2023-03-23T13:00:46;25.20;55.50
65752;DHT22;52486;51.098;13.770;2023-03-23T13:06:22;24.70;64.50
65752;DHT22;52486;51.098;13.770;2023-03-23T13:09:12;25.40;53.40
65752;DHT22;52486;51.098;13.770;2023-03-23T13:11:41;24.80;64.50
65752;DHT22;52486;51.098;13.770;2023-03-23T13:17:26;24.70;64.40
65752;DHT22;52486;51.098;13.770;2023-03-23T13:23:14;24.40;64.20
65752;DHT22;52486;51.098;13.770;2023-03-23T13:28:16;25.50;64.80
65752;DHT22;52486;51.098;13.770;2023-03-23T13:31:12;25.20;64.60
65752;DHT22;52486;51.098;13.770;2023-03-23T13:36:10;24.90;64.30
65752;DHT22;52486;51.098;13.770;2023-03-23T13:38:36;25.30;55.10
65752;DHT22;52486;51.098;13.770;2023-03-23T13:41:08;25.40;62.40
65752;DHT22;52486;51.098;13.770;2023-03-23T13:43:36;25.70;55.80
65752;DHT22;52486;51.098;13.770;2023-03-23T13:51:35;25.60;54.80
65752;DHT22;52486;51.098;13.770;2023-03-23T13:54:31;24.90;55.80
65752;DHT22;52486;51.098;13.770;2023-03-23T13:57:02;24.60;64.00
65752;DHT22;52486;51.098;13.770;2023-03-23T13:59:33;26.70;65.50
65752;DHT22;52486;51.098;13.770;2023-03-23T14:02:27;25.00;64.40
65752;DHT22;52486;51.098;13.770;2023-03-23T14:04:54;25.20;65.10
65752;DHT22;52486;51.098;13.770;2023-03-23T14:09:50;25.00;65.30
65752;DHT22;52486;51.098;13.770;2023-03-23T14:12:23;25.20;57.40
65752;DHT22;52486;51.098;13.770;2023-03-23T14:14:56;25.60;56.10
65752;DHT22;52486;51.098;13.770;2023-03-23T14:17:33;26.10;58.20
65752;DHT22;52486;51.098;13.770;2023-03-23T14:20:00;26.40;65.40
65752;DHT22;52486;51.098;13.770;2023-03-23T14:22:37;25.00;64.40
65752;DHT22;52486;51.098;13.770;2023-03-23T14:25:13;25.00;64.60
65752;DHT22;52486;51.098;13.770;2023-03-23T14:27:39;25.20;64.40
65752;DHT22;52486;51.098;13.770;2023-03-23T14:30:12;24.80;64.50
65752;DHT22;52486;51.098;13.770;2023-03-23T14:35:11;24.80;64.10
65752;DHT22;52486;51.098;13.770;2023-03-23T14:37:38;26.50;60.60
65752;DHT22;52486;51.098;13.770;2023-03-23T14:40:04;26.00;65.20
65752;DHT22;52486;51.098;13.770;2023-03-23T14:42:35;25.60;55.50
65752;DHT22;52486;51.098;13.770;2023-03-23T14:45:02;25.70;64.60
65752;DHT22;52486;51.098;13.770;2023-03-23T14:47:39;25.70;59.10
65752;DHT22;52486;51.098;13.770;2023-03-23T14:51:04;25.10;64.90
65752;DHT22;52486;51.098;13.770;2023-03-23T14:53:37;25.20;64.50
65752;DHT22;52486;51.098;13.770;2023-03-23T14:56:11;26.00;65.20
65752;DHT22;52486;51.098;13.770;2023-03-23T14:58:37;25.80;65.00
65752;DHT22;52486;51.098;13.770;2023-03-23T15:01:07;25.70;61.20
65752;DHT22;52486;51.098;13.770;2023-03-23T15:04:03;25.70;67.50
65752;DHT22;52486;51.098;13.770;2023-03-23T15:06:32;25.90;61.60
65752;DHT22;52486;51.098;13.770;2023-03-23T15:09:01;26.30;72.50
65752;DHT22;52486;51.098;13.770;2023-03-23T15:11:33;26.00;77.20
65752;DHT22;52486;51.098;13.770;2023-03-23T15:14:24;25.90;76.80
65752;DHT22;52486;51.098;13.770;2023-03-23T15:26:50;25.90;85.40
65752;DHT22;52486;51.098;13.770;2023-03-23T15:29:19;25.90;74.90
65752;DHT22;52486;51.098;13.770;2023-03-23T15:31:52;25.70;77.80
65752;DHT22;52486;51.098;13.770;2023-03-23T15:34:31;25.60;70.80
65752;DHT22;52486;51.098;13.770;2023-03-23T15:37:03;25.80;65.60
65752;DHT22;52486;51.098;13.770;2023-03-23T15:39:31;25.60;71.90
65752;DHT22;52486;51.098;13.770;2023-03-23T15:41:58;25.30;73.30
65752;DHT22;52486;51.098;13.770;2023-03-23T15:44:32;25.50;64.20
65752;DHT22;52486;51.098;13.770;2023-03-23T15:47:10;25.50;72.80
65752;DHT22;52486;51.098;13.770;2023-03-23T15:49:37;25.60;71.00
65752;DHT22;52486;51.098;13.770;2023-03-23T15:52:03;25.50;67.50
65752;DHT22;52486;51.098;13.770;2023-03-23T15:54:30;26.00;68.10
65752;DHT22;52486;51.098;13.770;2023-03-23T15:56:57;25.80;69.60
65752;DHT22;52486;51.098;13.770;2023-03-23T15:59:22;24.70;69.30
65752;DHT22;52486;51.098;13.770;2023-03-23T16:01:48;26.40;69.90
65752;DHT22;52486;51.098;13.770;2023-03-23T16:04:16;25.30;59.20
65752;DHT22;52486;51.098;13.770;2023-03-23T16:06:43;24.70;68.00
65752;DHT22;52486;51.098;13.770;2023-03-23T16:09:17;26.10;68.50
65752;DHT22;52486;51.098;13.770;2023-03-23T16:11:43;24.90;67.20
65752;DHT22;52486;51.098;13.770;2023-03-23T16:14:09;25.60;67.30
65752;DHT22;52486;51.098;13.770;2023-03-23T16:16:45;25.10;55.40
65752;DHT22;52486;51.098;13.770;2023-03-23T16:19:13;24.40;66.30
65752;DHT22;52486;51.098;13.770;2023-03-23T16:21:39;24.60;66.50
65752;DHT22;52486;51.098;13.770;2023-03-23T16:24:05;24.60;66.60
65752;DHT22;52486;51.098;13.770;2023-03-23T16:28:58;25.40;66.70
65752;DHT22;52486;51.098;13.770;2023-03-23T16:36:16;25.70;58.00
65752;DHT22;52486;51.098;13.770;2023-03-23T16:38:42;24.70;66.30
65752;DHT22;52486;51.098;13.770;2023-03-23T16:41:08;24.70;66.20
65752;DHT22;52486;51.098;13.770;2023-03-23T16:43:34;24.90;57.20
65752;DHT22;52486;51.098;13.770;2023-03-23T16:45:59;24.70;66.50
65752;DHT22;52486;51.098;13.770;2023-03-23T16:50:52;24.60;66.70
65752;DHT22;52486;51.098;13.770;2023-03-23T16:53:19;24.10;66.40
65752;DHT22;52486;51.098;13.770;2023-03-23T16:55:45;25.40;65.00
65752;DHT22;52486;51.098;13.770;2023-03-23T16:58:14;24.70;57.40
65752;DHT22;52486;51.098;13.770;2023-03-23T17:00:40;24.70;58.60
65752;DHT22;52486;51.098;13.770;2023-03-23T17:03:07;24.00;67.00
65752;DHT22;52486;51.098;13.770;2023-03-23T17:05:35;24.50;67.50
65752;DHT22;52486;51.098;13.770;2023-03-23T17:10:27;24.60;67.70
65752;DHT22;52486;51.098;13.770;2023-03-23T17:12:54;24.90;64.90
65752;DHT22;52486;51.098;13.770;2023-03-23T17:15:20;24.10;67.40
65752;DHT22;52486;51.098;13.770;2023-03-23T17:17:48;23.90;67.10
65752;DHT22;52486;51.098;13.770;2023-03-23T17:20:14;23.70;67.00
65752;DHT22;52486;51.098;13.770;2023-03-23T17:22:40;24.50;67.50
65752;DHT22;52486;51.098;13.770;2023-03-23T17:25:07;24.00;67.30
65752;DHT22;52486;51.098;13.770;2023-03-23T17:27:34;24.90;68.20
65752;DHT22;52486;51.098;13.770;2023-03-23T17:30:00;24.80;68.10
65752;DHT22;52486;51.098;13.770;2023-03-23T17:34:52;25.60;68.50
65752;DHT22;52486;51.098;13.770;2023-03-23T17:37:19;24.10;67.60
65752;DHT22;52486;51.098;13.770;2023-03-23T17:39:45;23.90;67.80
65752;DHT22;52486;51.098;13.770;2023-03-23T17:42:12;24.50;68.00
65752;DHT22;52486;51.098;13.770;2023-03-23T17:47:04;24.20;67.80
65752;DHT22;52486;51.098;13.770;2023-03-23T17:49:30;23.50;67.90
65752;DHT22;52486;51.098;13.770;2023-03-23T17:51:57;23.70;68.50
65752;DHT22;52486;51.098;13.770;2023-03-23T17:54:23;24.50;69.70
65752;DHT22;52486;51.098;13.770;2023-03-23T17:56:51;25.40;70.20
65752;DHT22;52486;51.098;13.770;2023-03-23T17:59:17;23.40;69.00
65752;DHT22;52486;51.098;13.770;2023-03-23T18:04:08;24.20;69.70
65752;DHT22;52486;51.098;13.770;2023-03-23T18:06:34;24.20;69.80
65752;DHT22;52486;51.098;13.770;2023-03-23T18:09:00;23.30;69.90
65752;DHT22;52486;51.098;13.770;2023-03-23T18:11:28;24.20;61.00
65752;DHT22;52486;51.098;13.770;2023-03-23T18:13:54;23.60;69.80
65752;DHT22;52486;51.098;13.770;2023-03-23T18:16:21;23.80;69.40
65752;DHT22;52486;51.098;13.770;2023-03-23T18:18:47;25.00;70.00
65752;DHT22;52486;51.098;13.770;2023-03-23T18:21:12;24.30;66.50
65752;DHT22;52486;51.098;13.770;2023-03-23T18:23:38;24.10;59.60
65752;DHT22;52486;51.098;13.770;2023-03-23T18:26:08;24.50;69.80
65752;DHT22;52486;51.098;13.770;2023-03-23T18:28:34;24.10;69.50
65752;DHT22;52486;51.098;13.770;2023-03-23T18:31:11;23.70;69.70
65752;DHT22;52486;51.098;13.770;2023-03-23T18:33:37;24.50;70.60
65752;DHT22;52486;51.098;13.770;2023-03-23T18:36:05;25.00;70.70
65752;DHT22;52486;51.098;13.770;2023-03-23T18:40:57;23.70;70.60
65752;DHT22;52486;51.098;13.770;2023-03-23T18:43:23;23.70;70.80
65752;DHT22;52486;51.098;13.770;2023-03-23T18:45:50;24.00;62.70
65752;DHT22;52486;51.098;13.770;2023-03-23T18:48:16;24.10;63.60
65752;DHT22;52486;51.098;13.770;2023-03-23T18:50:50;24.50;64.40
65752;DHT22;52486;51.098;13.770;2023-03-23T18:53:16;24.20;62.40
65752;DHT22;52486;51.098;13.770;2023-03-23T18:55:43;24.80;64.80
65752;DHT22;52486;51.098;13.770;2023-03-23T18:58:10;23.60;73.00
65752;DHT22;52486;51.098;13.770;2023-03-23T19:00:37;24.30;65.00
65752;DHT22;52486;51.098;13.770;2023-03-23T19:03:03;24.30;73.50
65752;DHT22;52486;51.098;13.770;2023-03-23T19:05:30;24.00;73.30
65752;DHT22;52486;51.098;13.770;2023-03-23T19:07:56;24.10;64.40
65752;DHT22;52486;51.098;13.770;2023-03-23T19:10:23;23.50;72.50
65752;DHT22;52486;51.098;13.770;2023-03-23T19:12:49;24.00;73.80
65752;DHT22;52486;51.098;13.770;2023-03-23T19:15:15;24.30;65.00
65752;DHT22;52486;51.098;13.770;2023-03-23T19:17:42;24.00;66.50
65752;DHT22;52486;51.098;13.770;2023-03-23T19:20:08;24.20;67.50
65752;DHT22;52486;51.098;13.770;2023-03-23T19:22:38;23.90;67.20
65752;DHT22;52486;51.098;13.770;2023-03-23T19:25:05;23.90;64.20
65752;DHT22;52486;51.098;13.770;2023-03-23T19:27:32;23.90;64.90
65752;DHT22;52486;51.098;13.770;2023-03-23T19:29:57;24.10;65.20
65752;DHT22;52486;51.098;13.770;2023-03-23T19:32:23;24.00;73.50
65752;DHT22;52486;51.098;13.770;2023-03-23T19:37:15;23.10;72.50
65752;DHT22;52486;51.098;13.770;2023-03-23T19:42:07;23.60;72.60
65752;DHT22;52486;51.098;13.770;2023-03-23T19:44:33;25.40;74.10
65752;DHT22;52486;51.098;13.770;2023-03-23T19:46:59;25.20;73.70